sensor_id;sensor_type;location;lat;lon;timestamp;pressure;altitude;pressure_sealevel;temperature;humidity
2785;BME280;57944;48.722;9.316;2022-09-17T00:02:14;97700.00;;;9.38;100.00
2785;BME280;57944;48.722;9.316;2022-09-17T00:04:46;97700.81;;;9.45;100.00
2785;BME280;57944;48.722;9.316;2022-09-17T00:07:16;97703.53;;;9.37;100.00
2785;BME280;57944;48.722;9.316;2022-09-17T00:09:46;97702.16;;;9.28;100.00
2785;BME280;57944;48.722;9.316;2022-09-17T00:12:16;97699.94;;;9.18;100.00
2785;BME280;57944;48.722;9.316;2022-09-17T00:14:46;97691.75;;;9.23;100.00
2785;BME280;57944;48.722;9.316;2022-09-17T00:17:19;97701.16;;;9.29;100.00
2785;BME280;57944;48.722;9.316;2022-09-17T00:19:49;97704.09;;;9.32;100.00
2785;BME280;57944;48.722;9.316;2022-09-17T00:22:19;97699.06;;;9.39;100.00
2785;BME280;57944;48.722;9.316;2022-09-17T00:24:49;97708.63;;;9.37;100.00
2785;BME280;57944;48.722;9.316;2022-09-17T00:27:18;97708.25;;;9.47;100.00
2785;BME280;57944;48.722;9.316;2022-09-17T00:29:48;97710.63;;;9.48;100.00
2785;BME280;57944;48.722;9.316;2022-09-17T00:32:21;97709.47;;;9.51;100.00
2785;BME280;57944;48.722;9.316;2022-09-17T00:34:52;97717.63;;;9.39;100.00
2785;BME280;57944;48.722;9.316;2022-09-17T00:37:22;97716.03;;;9.38;100.00
2785;BME280;57944;48.722;9.316;2022-09-17T00:39:52;97723.84;;;9.30;100.00
2785;BME280;57944;48.722;9.316;2022-09-17T00:42:22;97719.19;;;9.34;100.00
2785;BME280;57944;48.722;9.316;2022-09-17T00:44:54;97711.94;;;9.37;100.00
2785;BME280;57944;48.722;9.316;2022-09-17T00:47:33;97710.94;;;9.32;100.00
2785;BME280;57944;48.722;9.316;2022-09-17T00:50:08;97710.13;;;9.25;100.00
2785;BME280;57944;48.722;9.316;2022-09-17T00:52:47;97708.81;;;9.35;100.00
2785;BME280;57944;48.722;9.316;2022-09-17T00:55:30;97717.66;;;9.46;100.00
2785;BME280;57944;48.722;9.316;2022-09-17T00:58:03;97715.09;;;9.46;100.00
2785;BME280;57944;48.722;9.316;2022-09-17T01:00:34;97722.13;;;9.44;100.00
2785;BME280;57944;48.722;9.316;2022-09-17T01:03:08;97717.63;;;9.39;100.00
2785;BME280;57944;48.722;9.316;2022-09-17T01:05:45;97719.41;;;9.46;100.00
2785;BME280;57944;48.722;9.316;2022-09-17T01:08:24;97725.06;;;9.41;100.00
2785;BME280;57944;48.722;9.316;2022-09-17T01:11:23;97719.22;;;9.47;100.00
2785;BME280;57944;48.722;9.316;2022-09-17T01:14:16;97711.00;;;9.45;100.00
2785;BME280;57944;48.722;9.316;2022-09-17T01:16:59;97712.50;;;9.26;100.00
2785;BME280;57944;48.722;9.316;2022-09-17T01:23:08;97719.88;;;9.14;100.00
2785;BME280;57944;48.722;9.316;2022-09-17T01:25:58;97723.75;;;9.10;100.00
2785;BME280;57944;48.722;9.316;2022-09-17T01:28:41;97726.28;;;9.04;100.00
2785;BME280;57944;48.722;9.316;2022-09-17T01:31:35;97730.72;;;8.95;100.00
2785;BME280;57944;48.722;9.316;2022-09-17T01:34:21;97726.75;;;8.86;100.00
2785;BME280;57944;48.722;9.316;2022-09-17T01:37:03;97727.88;;;8.77;100.00
2785;BME280;57944;48.722;9.316;2022-09-17T01:39:47;97728.16;;;8.60;100.00
2785;BME280;57944;48.722;9.316;2022-09-17T01:42:24;97733.00;;;8.55;100.00
2785;BME280;57944;48.722;9.316;2022-09-17T01:45:05;97732.41;;;8.53;100.00
2785;BME280;57944;48.722;9.316;2022-09-17T01:47:46;97735.13;;;8.52;100.00
2785;BME280;57944;48.722;9.316;2022-09-17T01:50:24;97740.41;;;8.50;100.00
2785;BME280;57944;48.722;9.316;2022-09-17T01:52:57;97733.97;;;8.54;100.00
2785;BME280;57944;48.722;9.316;2022-09-17T01:55:34;97741.47;;;8.62;100.00
2785;BME280;57944;48.722;9.316;2022-09-17T01:58:11;97739.78;;;8.69;100.00
2785;BME280;57944;48.722;9.316;2022-09-17T02:00:49;97745.53;;;8.85;100.00
2785;BME280;57944;48.722;9.316;2022-09-17T02:03:30;97741.28;;;8.92;100.00
2785;BME280;57944;48.722;9.316;2022-09-17T02:06:07;97734.66;;;8.98;100.00
2785;BME280;57944;48.722;9.316;2022-09-17T02:08:46;97742.84;;;9.00;100.00
2785;BME280;57944;48.722;9.316;2022-09-17T02:11:18;97749.94;;;9.04;100.00
2785;BME280;57944;48.722;9.316;2022-09-17T02:13:55;97749.09;;;9.32;100.00
2785;BME280;57944;48.722;9.316;2022-09-17T02:16:30;97749.75;;;9.47;100.00
2785;BME280;57944;48.722;9.316;2022-09-17T02:19:10;97753.31;;;9.59;100.00
2785;BME280;57944;48.722;9.316;2022-09-17T02:21:48;97750.00;;;9.59;100.00
2785;BME280;57944;48.722;9.316;2022-09-17T02:24:24;97742.31;;;9.52;100.00
2785;BME280;57944;48.722;9.316;2022-09-17T02:27:10;97739.59;;;9.47;100.00
2785;BME280;57944;48.722;9.316;2022-09-17T02:29:44;97738.97;;;9.45;100.00
2785;BME280;57944;48.722;9.316;2022-09-17T02:32:15;97742.84;;;9.28;100.00
2785;BME280;57944;48.722;9.316;2022-09-17T02:34:48;97732.78;;;9.13;100.00
2785;BME280;57944;48.722;9.316;2022-09-17T02:37:19;97735.41;;;8.91;100.00
2785;BME280;57944;48.722;9.316;2022-09-17T02:39:49;97734.22;;;8.94;100.00
2785;BME280;57944;48.722;9.316;2022-09-17T02:42:27;97732.72;;;8.71;100.00
2785;BME280;57944;48.722;9.316;2022-09-17T02:45:10;97731.94;;;8.71;100.00
2785;BME280;57944;48.722;9.316;2022-09-17T02:48:17;97722.41;;;8.73;100.00
2785;BME280;57944;48.722;9.316;2022-09-17T02:51:14;97724.00;;;8.81;100.00
2785;BME280;57944;48.722;9.316;2022-09-17T02:54:01;97724.06;;;8.94;100.00
2785;BME280;57944;48.722;9.316;2022-09-17T02:56:44;97729.97;;;9.01;100.00
2785;BME280;57944;48.722;9.316;2022-09-17T02:59:24;97732.53;;;9.08;100.00
2785;BME280;57944;48.722;9.316;2022-09-17T03:02:04;97731.22;;;9.18;100.00
2785;BME280;57944;48.722;9.316;2022-09-17T03:04:37;97729.06;;;9.15;100.00
2785;BME280;57944;48.722;9.316;2022-09-17T03:07:12;97717.94;;;9.16;100.00
2785;BME280;57944;48.722;9.316;2022-09-17T03:09:42;97725.38;;;9.25;100.00
2785;BME280;57944;48.722;9.316;2022-09-17T03:12:12;97725.34;;;9.11;100.00
2785;BME280;57944;48.722;9.316;2022-09-17T03:14:42;97724.28;;;8.99;100.00
2785;BME280;57944;48.722;9.316;2022-09-17T03:17:12;97721.66;;;8.86;100.00
2785;BME280;57944;48.722;9.316;2022-09-17T03:19:42;97730.19;;;8.71;100.00
2785;BME280;57944;48.722;9.316;2022-09-17T03:22:15;97729.75;;;8.61;100.00
2785;BME280;57944;48.722;9.316;2022-09-17T03:24:45;97722.84;;;8.55;100.00
2785;BME280;57944;48.722;9.316;2022-09-17T03:27:15;97732.06;;;8.56;100.00
2785;BME280;57944;48.722;9.316;2022-09-17T03:29:45;97731.28;;;8.56;100.00
2785;BME280;57944;48.722;9.316;2022-09-17T03:32:15;97731.03;;;8.50;100.00
2785;BME280;57944;48.722;9.316;2022-09-17T03:34:45;97734.72;;;8.48;100.00
2785;BME280;57944;48.722;9.316;2022-09-17T03:37:18;97741.94;;;8.44;100.00
2785;BME280;57944;48.722;9.316;2022-09-17T03:39:48;97738.88;;;8.34;100.00
2785;BME280;57944;48.722;9.316;2022-09-17T03:42:18;97745.88;;;8.32;100.00
2785;BME280;57944;48.722;9.316;2022-09-17T03:44:48;97743.75;;;8.36;100.00
2785;BME280;57944;48.722;9.316;2022-09-17T03:47:18;97741.72;;;8.46;100.00
2785;BME280;57944;48.722;9.316;2022-09-17T03:49:48;97749.97;;;8.48;100.00
2785;BME280;57944;48.722;9.316;2022-09-17T03:52:21;97742.88;;;8.43;100.00
2785;BME280;57944;48.722;9.316;2022-09-17T03:54:51;97747.00;;;8.44;100.00
2785;BME280;57944;48.722;9.316;2022-09-17T03:57:21;97749.34;;;8.46;100.00
2785;BME280;57944;48.722;9.316;2022-09-17T03:59:51;97757.59;;;8.48;100.00
2785;BME280;57944;48.722;9.316;2022-09-17T04:02:21;97747.47;;;8.55;100.00
2785;BME280;57944;48.722;9.316;2022-09-17T04:04:51;97751.03;;;8.60;100.00
2785;BME280;57944;48.722;9.316;2022-09-17T04:07:25;97747.91;;;8.58;100.00
2785;BME280;57944;48.722;9.316;2022-09-17T04:09:55;97746.81;;;8.46;100.00
2785;BME280;57944;48.722;9.316;2022-09-17T04:12:25;97748.69;;;8.37;100.00
2785;BME280;57944;48.722;9.316;2022-09-17T04:14:55;97752.47;;;8.26;100.00
2785;BME280;57944;48.722;9.316;2022-09-17T04:17:26;97754.25;;;8.26;100.00
2785;BME280;57944;48.722;9.316;2022-09-17T04:19:56;97755.59;;;8.22;100.00
2785;BME280;57944;48.722;9.316;2022-09-17T04:22:29;97760.34;;;8.32;100.00
2785;BME280;57944;48.722;9.316;2022-09-17T04:24:59;97756.16;;;8.39;100.00
2785;BME280;57944;48.722;9.316;2022-09-17T04:27:29;97752.63;;;8.40;100.00
2785;BME280;57944;48.722;9.316;2022-09-17T04:29:59;97758.91;;;8.44;100.00
2785;BME280;57944;48.722;9.316;2022-09-17T04:32:30;97754.66;;;8.51;100.00
2785;BME280;57944;48.722;9.316;2022-09-17T04:35:00;97764.84;;;8.51;100.00
2785;BME280;57944;48.722;9.316;2022-09-17T04:37:32;97759.75;;;8.51;100.00
2785;BME280;57944;48.722;9.316;2022-09-17T04:40:04;97766.31;;;8.39;100.00
2785;BME280;57944;48.722;9.316;2022-09-17T04:42:34;97776.91;;;8.49;100.00
2785;BME280;57944;48.722;9.316;2022-09-17T04:45:06;97780.78;;;8.66;100.00
2785;BME280;57944;48.722;9.316;2022-09-17T04:47:37;97783.41;;;8.80;100.00
2785;BME280;57944;48.722;9.316;2022-09-17T04:50:08;97781.16;;;8.91;100.00
2785;BME280;57944;48.722;9.316;2022-09-17T04:52:44;97786.28;;;8.98;100.00
2785;BME280;57944;48.722;9.316;2022-09-17T04:55:15;97788.69;;;9.13;100.00
2785;BME280;57944;48.722;9.316;2022-09-17T04:57:46;97792.63;;;9.15;100.00
2785;BME280;57944;48.722;9.316;2022-09-17T05:00:18;97800.47;;;9.21;100.00
2785;BME280;57944;48.722;9.316;2022-09-17T05:02:53;97796.16;;;9.14;100.00
2785;BME280;57944;48.722;9.316;2022-09-17T05:05:24;97804.78;;;9.20;100.00
2785;BME280;57944;48.722;9.316;2022-09-17T05:07:56;97804.03;;;9.26;100.00
2785;BME280;57944;48.722;9.316;2022-09-17T05:10:26;97803.63;;;9.23;100.00
2785;BME280;57944;48.722;9.316;2022-09-17T05:12:56;97814.19;;;9.20;100.00
2785;BME280;57944;48.722;9.316;2022-09-17T05:15:27;97808.78;;;9.36;100.00
2785;BME280;57944;48.722;9.316;2022-09-17T05:17:57;97810.38;;;9.44;100.00
2785;BME280;57944;48.722;9.316;2022-09-17T05:20:27;97807.84;;;9.44;100.00
2785;BME280;57944;48.722;9.316;2022-09-17T05:23:00;97810.66;;;9.21;100.00
2785;BME280;57944;48.722;9.316;2022-09-17T05:25:30;97803.25;;;9.26;100.00
2785;BME280;57944;48.722;9.316;2022-09-17T05:28:00;97806.41;;;9.28;100.00
2785;BME280;57944;48.722;9.316;2022-09-17T05:30:31;97801.88;;;9.23;100.00
2785;BME280;57944;48.722;9.316;2022-09-17T05:33:03;97806.19;;;9.23;100.00
2785;BME280;57944;48.722;9.316;2022-09-17T05:35:34;97818.88;;;9.23;100.00
2785;BME280;57944;48.722;9.316;2022-09-17T05:38:07;97814.97;;;9.27;100.00
2785;BME280;57944;48.722;9.316;2022-09-17T05:40:37;97808.41;;;9.39;100.00
2785;BME280;57944;48.722;9.316;2022-09-17T05:43:08;97815.28;;;9.45;100.00
2785;BME280;57944;48.722;9.316;2022-09-17T05:45:39;97816.81;;;9.81;100.00
2785;BME280;57944;48.722;9.316;2022-09-17T05:48:12;97816.00;;;9.80;100.00
2785;BME280;57944;48.722;9.316;2022-09-17T05:50:42;97819.09;;;9.62;100.00
2785;BME280;57944;48.722;9.316;2022-09-17T05:53:15;97818.09;;;9.63;100.00
2785;BME280;57944;48.722;9.316;2022-09-17T05:55:45;97820.47;;;9.65;100.00
2785;BME280;57944;48.722;9.316;2022-09-17T05:58:18;97826.50;;;9.57;100.00
2785;BME280;57944;48.722;9.316;2022-09-17T06:00:48;97820.16;;;9.47;100.00
2785;BME280;57944;48.722;9.316;2022-09-17T06:03:19;97825.63;;;9.37;100.00
2785;BME280;57944;48.722;9.316;2022-09-17T06:05:55;97833.59;;;9.69;100.00
2785;BME280;57944;48.722;9.316;2022-09-17T06:08:28;97831.75;;;9.97;100.00
2785;BME280;57944;48.722;9.316;2022-09-17T06:11:03;97839.41;;;10.11;100.00
2785;BME280;57944;48.722;9.316;2022-09-17T06:13:34;97842.84;;;10.44;100.00
2785;BME280;57944;48.722;9.316;2022-09-17T06:16:05;97852.28;;;10.97;100.00
2785;BME280;57944;48.722;9.316;2022-09-17T06:18:35;97853.84;;;11.18;100.00
2785;BME280;57944;48.722;9.316;2022-09-17T06:21:05;97852.59;;;11.40;100.00
2785;BME280;57944;48.722;9.316;2022-09-17T06:23:37;97847.91;;;11.37;100.00
2785;BME280;57944;48.722;9.316;2022-09-17T06:26:10;97850.69;;;11.16;100.00
2785;BME280;57944;48.722;9.316;2022-09-17T06:28:40;97846.78;;;10.80;100.00
2785;BME280;57944;48.722;9.316;2022-09-17T06:31:12;97851.09;;;10.86;100.00
2785;BME280;57944;48.722;9.316;2022-09-17T06:33:42;97852.28;;;10.84;100.00
2785;BME280;57944;48.722;9.316;2022-09-17T06:36:14;97855.81;;;10.76;100.00
2785;BME280;57944;48.722;9.316;2022-09-17T06:38:46;97858.94;;;11.18;100.00
2785;BME280;57944;48.722;9.316;2022-09-17T06:41:16;97862.06;;;11.13;100.00
2785;BME280;57944;48.722;9.316;2022-09-17T06:43:46;97854.63;;;10.72;100.00
2785;BME280;57944;48.722;9.316;2022-09-17T06:46:16;97859.94;;;10.84;100.00
2785;BME280;57944;48.722;9.316;2022-09-17T06:48:47;97861.69;;;10.96;100.00
2785;BME280;57944;48.722;9.316;2022-09-17T06:51:17;97865.41;;;10.94;100.00
2785;BME280;57944;48.722;9.316;2022-09-17T06:53:51;97863.66;;;10.81;100.00
2785;BME280;57944;48.722;9.316;2022-09-17T06:56:21;97869.94;;;10.85;100.00
2785;BME280;57944;48.722;9.316;2022-09-17T06:58:51;97865.41;;;10.47;100.00
2785;BME280;57944;48.722;9.316;2022-09-17T07:01:21;97868.38;;;10.64;100.00
2785;BME280;57944;48.722;9.316;2022-09-17T07:03:51;97860.13;;;10.82;100.00
2785;BME280;57944;48.722;9.316;2022-09-17T07:06:21;97862.47;;;10.70;100.00
2785;BME280;57944;48.722;9.316;2022-09-17T07:08:53;97865.59;;;10.66;100.00
2785;BME280;57944;48.722;9.316;2022-09-17T07:11:23;97869.13;;;10.71;100.00
2785;BME280;57944;48.722;9.316;2022-09-17T07:13:53;97872.66;;;10.77;100.00
2785;BME280;57944;48.722;9.316;2022-09-17T07:16:24;97875.03;;;10.85;100.00
2785;BME280;57944;48.722;9.316;2022-09-17T07:18:54;97873.44;;;10.78;100.00
2785;BME280;57944;48.722;9.316;2022-09-17T07:21:24;97879.72;;;10.68;100.00
2785;BME280;57944;48.722;9.316;2022-09-17T07:23:58;97877.94;;;10.42;100.00
2785;BME280;57944;48.722;9.316;2022-09-17T07:26:28;97884.78;;;10.48;100.00
2785;BME280;57944;48.722;9.316;2022-09-17T07:28:58;97882.84;;;10.64;100.00
2785;BME280;57944;48.722;9.316;2022-09-17T07:31:28;97897.72;;;10.40;100.00
2785;BME280;57944;48.722;9.316;2022-09-17T07:33:58;97892.03;;;9.90;100.00
2785;BME280;57944;48.722;9.316;2022-09-17T07:36:28;97903.00;;;9.56;100.00
2785;BME280;57944;48.722;9.316;2022-09-17T07:39:00;97906.16;;;9.30;100.00
2785;BME280;57944;48.722;9.316;2022-09-17T07:41:30;97901.59;;;9.18;100.00
2785;BME280;57944;48.722;9.316;2022-09-17T07:44:01;97900.75;;;9.11;100.00
2785;BME280;57944;48.722;9.316;2022-09-17T07:46:33;97900.16;;;9.09;100.00
2785;BME280;57944;48.722;9.316;2022-09-17T07:49:03;97900.53;;;9.06;100.00
2785;BME280;57944;48.722;9.316;2022-09-17T07:51:33;97902.09;;;9.07;100.00
2785;BME280;57944;48.722;9.316;2022-09-17T07:54:06;97909.22;;;9.18;100.00
2785;BME280;57944;48.722;9.316;2022-09-17T07:56:36;97913.00;;;9.29;100.00
2785;BME280;57944;48.722;9.316;2022-09-17T07:59:07;97911.09;;;9.38;100.00
2785;BME280;57944;48.722;9.316;2022-09-17T08:01:37;97915.78;;;9.69;100.00
2785;BME280;57944;48.722;9.316;2022-09-17T08:04:08;97915.50;;;9.85;100.00
2785;BME280;57944;48.722;9.316;2022-09-17T08:06:38;97927.59;;;9.77;100.00
2785;BME280;57944;48.722;9.316;2022-09-17T08:09:11;97920.81;;;9.56;100.00
2785;BME280;57944;48.722;9.316;2022-09-17T08:11:41;97930.41;;;9.54;100.00
2785;BME280;57944;48.722;9.316;2022-09-17T08:14:27;97925.72;;;9.57;100.00
2785;BME280;57944;48.722;9.316;2022-09-17T08:16:57;97924.66;;;9.45;100.00
2785;BME280;57944;48.722;9.316;2022-09-17T08:19:30;97928.03;;;9.52;100.00
2785;BME280;57944;48.722;9.316;2022-09-17T08:22:00;97928.56;;;9.76;100.00
2785;BME280;57944;48.722;9.316;2022-09-17T08:24:33;97933.34;;;9.92;100.00
2785;BME280;57944;48.722;9.316;2022-09-17T08:27:03;97932.38;;;9.93;100.00
2785;BME280;57944;48.722;9.316;2022-09-17T08:29:33;97932.78;;;9.97;100.00
2785;BME280;57944;48.722;9.316;2022-09-17T08:32:03;97928.16;;;10.14;100.00
2785;BME280;57944;48.722;9.316;2022-09-17T08:34:33;97928.97;;;10.14;100.00
2785;BME280;57944;48.722;9.316;2022-09-17T08:37:03;97926.13;;;10.02;100.00
2785;BME280;57944;48.722;9.316;2022-09-17T08:39:36;97929.28;;;10.04;100.00
2785;BME280;57944;48.722;9.316;2022-09-17T08:42:15;97927.84;;;10.30;100.00
2785;BME280;57944;48.722;9.316;2022-09-17T08:44:50;97936.09;;;10.39;100.00
2785;BME280;57944;48.722;9.316;2022-09-17T08:47:29;97942.41;;;10.49;100.00
2785;BME280;57944;48.722;9.316;2022-09-17T08:50:05;97944.59;;;10.66;100.00
2785;BME280;57944;48.722;9.316;2022-09-17T08:53:06;97943.31;;;11.10;100.00
2785;BME280;57944;48.722;9.316;2022-09-17T08:55:50;97950.53;;;11.53;100.00
2785;BME280;57944;48.722;9.316;2022-09-17T08:58:40;97956.22;;;11.61;100.00
2785;BME280;57944;48.722;9.316;2022-09-17T09:01:27;97954.13;;;12.23;100.00
2785;BME280;57944;48.722;9.316;2022-09-17T09:04:18;97946.06;;;12.65;100.00
2785;BME280;57944;48.722;9.316;2022-09-17T09:06:58;97950.44;;;12.89;100.00
2785;BME280;57944;48.722;9.316;2022-09-17T09:09:37;97947.34;;;12.81;100.00
2785;BME280;57944;48.722;9.316;2022-09-17T09:12:20;97945.59;;;13.06;100.00
2785;BME280;57944;48.722;9.316;2022-09-17T09:14:58;97942.22;;;13.12;100.00
2785;BME280;57944;48.722;9.316;2022-09-17T09:17:35;97950.59;;;13.88;100.00
2785;BME280;57944;48.722;9.316;2022-09-17T09:20:16;97949.03;;;14.05;100.00
2785;BME280;57944;48.722;9.316;2022-09-17T09:22:49;97942.63;;;13.96;100.00
2785;BME280;57944;48.722;9.316;2022-09-17T09:25:23;97946.66;;;14.22;100.00
2785;BME280;57944;48.722;9.316;2022-09-17T09:28:16;97950.78;;;15.26;100.00
2785;BME280;57944;48.722;9.316;2022-09-17T09:31:04;97945.97;;;15.53;100.00
2785;BME280;57944;48.722;9.316;2022-09-17T09:33:41;97940.38;;;15.09;100.00
2785;BME280;57944;48.722;9.316;2022-09-17T09:36:16;97943.72;;;14.37;100.00
2785;BME280;57944;48.722;9.316;2022-09-17T09:38:55;97935.38;;;14.42;100.00
2785;BME280;57944;48.722;9.316;2022-09-17T09:41:37;97939.22;;;14.21;100.00
2785;BME280;57944;48.722;9.316;2022-09-17T09:44:14;97941.66;;;14.76;100.00
2785;BME280;57944;48.722;9.316;2022-09-17T09:47:16;97929.97;;;14.01;100.00
2785;BME280;57944;48.722;9.316;2022-09-17T09:50:06;97939.91;;;14.09;100.00
2785;BME280;57944;48.722;9.316;2022-09-17T09:52:56;97929.78;;;15.17;100.00
2785;BME280;57944;48.722;9.316;2022-09-17T09:55:56;97934.03;;;14.58;100.00
2785;BME280;57944;48.722;9.316;2022-09-17T09:58:35;97934.22;;;14.56;100.00
2785;BME280;57944;48.722;9.316;2022-09-17T10:01:14;97935.53;;;14.77;100.00
2785;BME280;57944;48.722;9.316;2022-09-17T10:03:49;97939.44;;;14.49;100.00
2785;BME280;57944;48.722;9.316;2022-09-17T10:06:28;97944.91;;;14.04;100.00
2785;BME280;57944;48.722;9.316;2022-09-17T10:09:10;97934.72;;;13.61;100.00
2785;BME280;57944;48.722;9.316;2022-09-17T10:11:58;97934.09;;;13.66;100.00
2785;BME280;57944;48.722;9.316;2022-09-17T10:14:30;97934.84;;;13.23;100.00
2785;BME280;57944;48.722;9.316;2022-09-17T10:17:20;97930.91;;;13.45;100.00
2785;BME280;57944;48.722;9.316;2022-09-17T10:20:13;97939.59;;;13.88;100.00
2785;BME280;57944;48.722;9.316;2022-09-17T10:22:49;97940.16;;;14.38;100.00
2785;BME280;57944;48.722;9.316;2022-09-17T10:25:28;97940.56;;;14.05;100.00
2785;BME280;57944;48.722;9.316;2022-09-17T10:28:02;97940.81;;;13.41;100.00
2785;BME280;57944;48.722;9.316;2022-09-17T10:30:34;97934.28;;;13.46;100.00
2785;BME280;57944;48.722;9.316;2022-09-17T10:33:18;97934.03;;;14.58;100.00
2785;BME280;57944;48.722;9.316;2022-09-17T10:35:58;97925.41;;;14.94;99.26
2785;BME280;57944;48.722;9.316;2022-09-17T10:38:32;97928.06;;;16.05;89.03
2785;BME280;57944;48.722;9.316;2022-09-17T10:41:18;97925.56;;;16.67;81.85
2785;BME280;57944;48.722;9.316;2022-09-17T10:43:51;97930.91;;;16.66;82.47
2785;BME280;57944;48.722;9.316;2022-09-17T10:46:26;97924.06;;;16.71;75.74
2785;BME280;57944;48.722;9.316;2022-09-17T10:49:10;97924.94;;;18.05;69.34
2785;BME280;57944;48.722;9.316;2022-09-17T10:51:44;97922.06;;;18.78;58.30
2785;BME280;57944;48.722;9.316;2022-09-17T10:54:43;97928.09;;;16.79;72.22
2785;BME280;57944;48.722;9.316;2022-09-17T10:57:37;97916.91;;;16.28;74.48
2785;BME280;57944;48.722;9.316;2022-09-17T11:00:16;97911.34;;;16.48;71.58
2785;BME280;57944;48.722;9.316;2022-09-17T11:03:18;97915.13;;;15.88;75.27
2785;BME280;57944;48.722;9.316;2022-09-17T11:06:27;97917.25;;;15.68;78.84
2785;BME280;57944;48.722;9.316;2022-09-17T11:09:16;97915.81;;;15.83;73.08
2785;BME280;57944;48.722;9.316;2022-09-17T11:12:09;97891.59;;;15.56;73.82
2785;BME280;57944;48.722;9.316;2022-09-17T11:14:50;97909.75;;;15.90;74.13
2785;BME280;57944;48.722;9.316;2022-09-17T11:21:12;97895.06;;;18.37;56.32
2785;BME280;57944;48.722;9.316;2022-09-17T11:27:07;97896.88;;;17.87;56.67
2785;BME280;57944;48.722;9.316;2022-09-17T11:30:01;97885.16;;;17.57;53.88
2785;BME280;57944;48.722;9.316;2022-09-17T11:32:59;97890.16;;;16.74;60.36
2785;BME280;57944;48.722;9.316;2022-09-17T11:35:40;97903.91;;;16.06;60.75
2785;BME280;57944;48.722;9.316;2022-09-17T11:38:23;97901.22;;;16.29;64.70
2785;BME280;57944;48.722;9.316;2022-09-17T11:41:02;97885.22;;;17.62;58.51
2785;BME280;57944;48.722;9.316;2022-09-17T11:43:39;97884.00;;;17.09;57.00
2785;BME280;57944;48.722;9.316;2022-09-17T11:46:19;97883.31;;;16.63;59.18
2785;BME280;57944;48.722;9.316;2022-09-17T11:48:57;97879.16;;;16.62;58.25
2785;BME280;57944;48.722;9.316;2022-09-17T11:51:35;97880.19;;;16.95;57.58
2785;BME280;57944;48.722;9.316;2022-09-17T11:54:15;97873.53;;;17.33;56.95
2785;BME280;57944;48.722;9.316;2022-09-17T11:56:58;97868.41;;;17.38;54.24
2785;BME280;57944;48.722;9.316;2022-09-17T11:59:43;97868.19;;;16.84;54.57
2785;BME280;57944;48.722;9.316;2022-09-17T12:02:22;97870.91;;;16.31;55.06
2785;BME280;57944;48.722;9.316;2022-09-17T12:05:00;97862.31;;;16.71;53.41
2785;BME280;57944;48.722;9.316;2022-09-17T12:07:42;97858.34;;;17.14;50.84
2785;BME280;57944;48.722;9.316;2022-09-17T12:10:47;97863.16;;;16.60;53.62
2785;BME280;57944;48.722;9.316;2022-09-17T12:13:32;97860.59;;;16.15;56.74
2785;BME280;57944;48.722;9.316;2022-09-17T12:16:13;97861.47;;;15.92;58.98
2785;BME280;57944;48.722;9.316;2022-09-17T12:18:54;97851.25;;;15.68;58.92
2785;BME280;57944;48.722;9.316;2022-09-17T12:21:35;97852.13;;;15.62;57.25
2785;BME280;57944;48.722;9.316;2022-09-17T12:24:14;97853.78;;;15.16;63.76
2785;BME280;57944;48.722;9.316;2022-09-17T12:27:13;97841.50;;;14.83;63.60
2785;BME280;57944;48.722;9.316;2022-09-17T12:30:11;97845.16;;;14.21;69.76
2785;BME280;57944;48.722;9.316;2022-09-17T12:33:18;97859.06;;;13.65;99.25
2785;BME280;57944;48.722;9.316;2022-09-17T12:36:25;97856.03;;;12.24;100.00
2785;BME280;57944;48.722;9.316;2022-09-17T12:39:33;97849.63;;;11.57;100.00
2785;BME280;57944;48.722;9.316;2022-09-17T12:42:23;97860.84;;;11.36;100.00
2785;BME280;57944;48.722;9.316;2022-09-17T12:45:21;97868.75;;;11.21;100.00
2785;BME280;57944;48.722;9.316;2022-09-17T12:51:49;97853.94;;;11.56;100.00
2785;BME280;57944;48.722;9.316;2022-09-17T12:55:10;97853.13;;;12.14;100.00
2785;BME280;57944;48.722;9.316;2022-09-17T12:58:00;97847.78;;;12.22;100.00
2785;BME280;57944;48.722;9.316;2022-09-17T13:00:45;97850.44;;;12.09;100.00
2785;BME280;57944;48.722;9.316;2022-09-17T13:03:23;97848.91;;;12.01;100.00
2785;BME280;57944;48.722;9.316;2022-09-17T13:06:42;97868.38;;;12.34;100.00
2785;BME280;57944;48.722;9.316;2022-09-17T13:09:46;97876.66;;;12.29;100.00
2785;BME280;57944;48.722;9.316;2022-09-17T13:12:30;97883.78;;;12.21;100.00
2785;BME280;57944;48.722;9.316;2022-09-17T13:15:29;97883.50;;;12.36;100.00
2785;BME280;57944;48.722;9.316;2022-09-17T13:18:13;97898.06;;;12.35;100.00
2785;BME280;57944;48.722;9.316;2022-09-17T13:21:04;97895.91;;;11.87;100.00
2785;BME280;57944;48.722;9.316;2022-09-17T13:23:42;97911.09;;;11.35;100.00
2785;BME280;57944;48.722;9.316;2022-09-17T13:26:15;97918.78;;;11.29;100.00
2785;BME280;57944;48.722;9.316;2022-09-17T13:28:48;97915.03;;;11.05;100.00
2785;BME280;57944;48.722;9.316;2022-09-17T13:31:21;97915.03;;;11.05;100.00
2785;BME280;57944;48.722;9.316;2022-09-17T13:34:31;97920.94;;;10.99;100.00
2785;BME280;57944;48.722;9.316;2022-09-17T13:37:03;97904.84;;;10.91;100.00
2785;BME280;57944;48.722;9.316;2022-09-17T13:39:43;97911.72;;;11.11;100.00
2785;BME280;57944;48.722;9.316;2022-09-17T13:42:19;97916.59;;;11.32;100.00
2785;BME280;57944;48.722;9.316;2022-09-17T13:45:04;97919.72;;;11.54;100.00
2785;BME280;57944;48.722;9.316;2022-09-17T13:47:50;97921.63;;;11.72;100.00
2785;BME280;57944;48.722;9.316;2022-09-17T13:50:31;97916.47;;;12.05;100.00
2785;BME280;57944;48.722;9.316;2022-09-17T13:53:15;97911.75;;;12.47;100.00
2785;BME280;57944;48.722;9.316;2022-09-17T13:55:50;97907.03;;;13.33;100.00
2785;BME280;57944;48.722;9.316;2022-09-17T13:58:25;97904.56;;;13.63;100.00
2785;BME280;57944;48.722;9.316;2022-09-17T14:00:59;97900.41;;;14.89;100.00
2785;BME280;57944;48.722;9.316;2022-09-17T14:03:51;97914.81;;;15.02;100.00
2785;BME280;57944;48.722;9.316;2022-09-17T14:06:50;97905.88;;;14.21;100.00
2785;BME280;57944;48.722;9.316;2022-09-17T14:09:48;97907.66;;;14.50;100.00
2785;BME280;57944;48.722;9.316;2022-09-17T14:12:53;97908.72;;;16.02;100.00
2785;BME280;57944;48.722;9.316;2022-09-17T14:15:53;97906.31;;;15.49;100.00
2785;BME280;57944;48.722;9.316;2022-09-17T14:18:41;97902.00;;;14.00;100.00